METAR Data
IDs: Format: Raw Decoded Include TAF

Data at: 0815 UTC 01 Aug 2021

UUDL 010800Z 24005MPS 9999 FEW030 24/15 Q1010 R23/010060 NOSIG RMK QFE749